Saltar para o conteúdo principal

Viseu (Cidade)

ID 1240675 · 40.6627, -7.9040 mapa

Última leitura · 2026-05-09 19:00 (Europe/Lisbon)

Temperatura
12.6 °C
Humidade
100 %
Pressão
Precipitação
0.2 mm
Radiação
Velocidade do vento
Direcção do vento
Sem vento

Histórico de 24 horas

Hora (Europe/Lisbon) Temperatura Humidade Pressão Chuva Vento Direcção
2026-05-09 19:00 12.6 °C 100 % 0.2 mm
2026-05-09 18:00 12.5 °C 100 % 0.2 mm
2026-05-09 17:00 14.1 °C 83 % 0.1 mm
2026-05-09 16:00 15.8 °C 86 % 0.1 mm
2026-05-09 15:00 15.7 °C 83 % 0.0 mm
2026-05-09 14:00 15.5 °C 85 % 0.2 mm
2026-05-09 13:00 14.7 °C 88 % 0.2 mm
2026-05-09 12:00 13.1 °C 99 % 0.6 mm
2026-05-09 11:00 12.2 °C 97 % 0.6 mm
2026-05-09 10:00 13.9 °C 81 % 0.1 mm
2026-05-09 09:00 13.2 °C 87 % 0.0 mm
2026-05-09 08:00 11.6 °C 97 % 0.0 mm
2026-05-09 07:00 11.6 °C 91 % 0.0 mm
2026-05-09 06:00 12.2 °C 87 % 0.0 mm
2026-05-09 05:00 11.8 °C 92 % 0.0 mm
2026-05-09 04:00 11.7 °C 98 % 0.0 mm
2026-05-09 03:00 11.3 °C 0.0 mm
2026-05-09 02:00 11.7 °C 99 % 0.0 mm
2026-05-09 01:00 12.5 °C 93 % 0.1 mm
2026-05-09 00:00 14.0 °C 72 % 0.1 mm
2026-05-08 23:00 14.3 °C 68 % 0.0 mm
2026-05-08 22:00 14.1 °C 70 % 0.0 mm
2026-05-08 21:00 14.7 °C 69 % 0.0 mm
2026-05-08 20:00 16.1 °C 62 % 0.0 mm